createdAt,value
2023-01-10T00:01:22.615Z,262.13
2023-01-10T00:11:45.056Z,257.47
2023-01-10T00:21:48.549Z,258.80
2023-01-10T00:31:53.390Z,252.57
2023-01-10T00:42:14.362Z,250.80
2023-01-10T00:52:19.217Z,247.43
2023-01-10T01:02:22.812Z,239.40
2023-01-10T01:12:27.924Z,238.40
2023-01-10T01:22:31.493Z,233.57
2023-01-10T01:32:36.424Z,230.63
2023-01-10T01:42:40.060Z,229.43
2023-01-10T01:52:45.585Z,224.37
2023-01-10T02:03:02.618Z,226.07
2023-01-10T02:13:11.020Z,225.27
2023-01-10T02:23:51.652Z,231.03
2023-01-10T02:34:05.557Z,223.53
2023-01-10T02:44:13.541Z,229.03
2023-01-10T02:54:22.966Z,231.10
2023-01-10T03:04:37.609Z,227.20
2023-01-10T03:14:44.299Z,223.37
2023-01-10T03:24:51.004Z,223.60
2023-01-10T03:34:56.517Z,222.23
2023-01-10T03:45:06.790Z,222.93
2023-01-10T03:55:16.646Z,221.10
2023-01-10T04:05:21.801Z,223.00
2023-01-10T04:15:26.648Z,205.43
2023-01-10T04:25:30.122Z,206.50
2023-01-10T04:35:34.952Z,212.47
2023-01-10T04:45:38.944Z,206.53
2023-01-10T04:55:43.833Z,203.37
2023-01-10T05:05:47.338Z,202.20
2023-01-10T05:15:55.080Z,199.03
2023-01-10T05:25:58.701Z,199.33
2023-01-10T05:36:04.983Z,196.53
2023-01-10T05:46:08.499Z,198.90
2023-01-10T05:56:13.492Z,196.97
2023-01-10T06:06:16.964Z,202.60
2023-01-10T06:16:22.224Z,195.67
2023-01-10T06:26:25.905Z,206.73
2023-01-10T06:36:30.732Z,200.70
2023-01-10T06:46:34.191Z,205.07
2023-01-10T06:56:39.049Z,201.10
2023-01-10T07:06:43.121Z,198.87
2023-01-10T07:16:48.084Z,207.33
2023-01-10T07:26:51.508Z,198.63
2023-01-10T07:36:56.438Z,198.87
2023-01-10T07:46:59.996Z,202.17
2023-01-10T07:57:05.011Z,199.00
2023-01-10T08:07:08.449Z,203.10
2023-01-10T08:17:13.269Z,202.07
2023-01-10T08:27:16.762Z,203.70
2023-01-10T08:37:21.662Z,206.73
2023-01-10T08:47:25.358Z,211.70
2023-01-10T08:57:32.511Z,209.20
2023-01-10T09:07:36.139Z,207.93
2023-01-10T09:17:41.382Z,215.60
2023-01-10T09:27:44.908Z,211.87
2023-01-10T09:37:50.026Z,201.43
2023-01-10T09:48:00.563Z,208.13
2023-01-10T09:58:11.389Z,212.37
2023-01-10T10:08:19.275Z,219.40
2023-01-10T10:18:40.218Z,224.23
2023-01-10T10:29:13.263Z,221.83
2023-01-10T10:39:22.523Z,222.20
2023-01-10T10:49:38.486Z,209.93
2023-01-10T10:59:48.584Z,202.47
2023-01-10T11:09:56.009Z,191.43
2023-01-10T11:20:06.307Z,214.87
2023-01-10T11:30:18.357Z,196.10
2023-01-10T11:40:26.860Z,197.10
2023-01-10T11:50:34.714Z,226.00
2023-01-10T12:00:44.878Z,203.77
2023-01-10T12:11:03.547Z,205.63
2023-01-10T12:21:11.441Z,212.80
2023-01-10T12:31:16.480Z,206.77
2023-01-10T12:41:52.516Z,199.33
2023-01-10T12:52:00.308Z,204.70
2023-01-10T13:02:11.374Z,210.03
2023-01-10T13:12:21.743Z,209.80
2023-01-10T13:22:26.741Z,210.93
2023-01-10T13:32:35.260Z,212.90
2023-01-10T13:42:57.652Z,218.20
2023-01-10T13:53:59.626Z,225.40
2023-01-10T14:04:05.308Z,228.60
2023-01-10T14:14:24.005Z,217.17
2023-01-10T14:24:33.658Z,214.77
2023-01-10T14:34:39.011Z,232.73
2023-01-10T14:44:50.074Z,220.60
2023-01-10T14:55:04.661Z,225.83
2023-01-10T15:05:18.435Z,224.30
2023-01-10T15:15:34.206Z,232.50
2023-01-10T15:25:40.765Z,225.33
2023-01-10T15:35:45.068Z,232.27
2023-01-10T15:45:51.579Z,242.37
2023-01-10T15:55:56.978Z,246.37
2023-01-10T16:06:02.636Z,234.20
2023-01-10T16:16:16.842Z,221.50
2023-01-10T16:26:21.813Z,219.47
2023-01-10T16:36:25.283Z,226.87
2023-01-10T16:46:30.309Z,242.60
2023-01-10T16:56:33.812Z,241.17
2023-01-10T17:06:40.250Z,248.53
2023-01-10T17:16:43.768Z,252.77
2023-01-10T17:26:48.759Z,236.87
2023-01-10T17:36:52.485Z,249.47
2023-01-10T17:46:57.406Z,242.20
2023-01-10T17:57:00.879Z,254.27
2023-01-10T18:07:07.369Z,257.63
2023-01-10T18:17:13.138Z,248.13
2023-01-10T18:27:18.474Z,245.17
2023-01-10T18:37:21.990Z,257.70
2023-01-10T18:47:26.934Z,258.93
2023-01-10T18:57:32.572Z,264.17
2023-01-10T19:07:37.529Z,255.40
2023-01-10T19:17:41.191Z,262.13
2023-01-10T19:27:46.121Z,263.17
2023-01-10T19:37:49.820Z,272.07
2023-01-10T19:47:54.713Z,270.20
2023-01-10T19:57:58.267Z,273.23
2023-01-10T20:08:04.963Z,267.73
2023-01-10T20:18:08.486Z,272.10
2023-01-10T20:28:13.350Z,271.83
2023-01-10T20:38:18.968Z,267.77
2023-01-10T20:48:25.391Z,256.67
2023-01-10T20:58:28.935Z,272.77
2023-01-10T21:08:34.003Z,269.47
2023-01-10T21:18:41.110Z,263.53
2023-01-10T21:28:47.646Z,273.73
2023-01-10T21:38:51.209Z,260.83
2023-01-10T21:48:58.928Z,260.60
2023-01-10T21:59:02.405Z,258.17
2023-01-10T22:09:07.319Z,250.80
2023-01-10T22:19:11.470Z,250.07
2023-01-10T22:29:16.826Z,251.50
2023-01-10T22:39:20.409Z,245.47
2023-01-10T22:49:25.319Z,241.87
2023-01-10T22:59:28.724Z,244.40
2023-01-10T23:09:33.566Z,239.83
2023-01-10T23:19:37.051Z,238.80
2023-01-10T23:29:41.933Z,246.97
2023-01-10T23:39:45.398Z,247.13
2023-01-10T23:49:50.354Z,241.80
2023-01-10T23:59:53.804Z,237.90
